Time;durP1;ratioP1;P1;durP2;ratioP2;P2;SDS_P1;SDS_P2;PMS_P1;PMS_P2;Temp;Humidity;BMP_temperature;BMP_pressure;BME280_temperature;BME280_humidity;BME280_pressure;Samples;Min_cycle;Max_cycle;Signal;HPM_P1;HPM_P2
2022/10/07 00:01:30;;;;;;;84.77;23.13;;;;;;;10.45;79.94;102123.51;5008051;57;1141268;-70
2022/10/07 00:06:36;;;;;;;87.87;26.23;;;;;;;10.38;80.21;102123.45;5045953;57;1141414;-70
2022/10/07 00:11:42;;;;;;;70.90;22.47;;;;;;;10.30;80.51;102123.83;5046002;57;1141224;-72
2022/10/07 00:16:48;;;;;;;59.93;18.90;;;;;;;10.18;80.69;102121.78;5046221;57;1141771;-69
2022/10/07 00:21:53;;;;;;;50.57;15.03;;;;;;;10.18;80.69;102121.78;5046327;57;1141465;-69
2022/10/07 00:26:59;;;;;;;48.47;13.40;;;;;;;10.20;80.86;102129.20;5046366;57;1141469;-67
2022/10/07 00:32:05;;;;;;;44.00;13.43;;;;;;;10.12;80.80;102123.39;5052719;58;1141639;-70
2022/10/07 00:37:10;;;;;;;43.00;13.17;;;;;;;10.01;80.69;102121.76;5081573;58;1141881;-70
2022/10/07 00:42:16;;;;;;;33.47;9.93;;;;;;;9.93;80.92;102115.52;5024235;58;1141036;-63
2022/10/07 00:47:34;;;;;;;27.35;10.40;;;;;;;9.82;80.51;102116.52;5127932;57;1137333;-69
2022/10/07 00:52:44;;;;;;;29.83;11.03;;;;;;;9.73;80.77;102110.38;5131860;57;1139412;-67
2022/10/07 00:57:54;;;;;;;36.20;12.63;;;;;;;9.66;81.14;102108.95;5163018;57;1139772;-67
2022/10/07 01:03:00;;;;;;;26.20;8.43;;;;;;;9.55;81.35;102104.19;5163495;56;1139396;-69
2022/10/07 01:08:06;;;;;;;28.13;10.00;;;;;;;9.50;81.72;102105.72;5150139;57;1135026;-70
2022/10/07 01:13:30;;;;;;;23.77;8.50;;;;;;;9.43;81.92;102105.64;5148169;57;1137173;-72
2022/10/07 01:18:42;;;;;;;21.47;8.37;;;;;;;9.41;82.00;102100.89;5155763;56;1139229;-67
2022/10/07 01:24:11;;;;;;;20.65;7.15;;;;;;;9.40;82.18;102096.53;5145172;56;1139032;-69
2022/10/07 01:29:28;;;;;;;23.20;8.35;;;;;;;9.34;81.82;102090.67;5119798;57;1136997;-73
2022/10/07 01:34:36;;;;;;;21.50;7.10;;;;;;;9.28;82.01;102089.66;5141551;57;1139062;-64
2022/10/07 01:39:48;;;;;;;34.13;9.33;;;;;;;9.23;81.58;102083.27;5152027;57;1139016;-67
2022/10/07 01:44:57;;;;;;;27.87;9.73;;;;;;;9.22;82.37;102083.34;5163888;57;1139021;-72
2022/10/07 01:50:04;;;;;;;28.13;10.00;;;;;;;9.25;83.14;102085.38;5162125;57;1139079;-70
2022/10/07 01:55:31;;;;;;;29.47;8.67;;;;;;;9.29;83.67;102083.45;5165401;57;1141062;-69
2022/10/07 02:00:44;;;;;;;25.43;8.10;;;;;;;9.29;83.64;102076.86;5165390;57;1139013;-69
2022/10/07 02:06:01;;;;;;;25.60;7.70;;;;;;;9.25;83.31;102073.96;5164876;57;1139188;-70
2022/10/07 02:11:26;;;;;;;19.90;6.07;;;;;;;9.21;83.02;102072.39;5165114;57;1139055;-69
2022/10/07 02:16:47;;;;;;;19.80;7.57;;;;;;;9.08;82.47;102062.88;5100019;57;1139014;-69
2022/10/07 02:21:56;;;;;;;15.60;5.40;;;;;;;9.02;82.71;102061.83;5047808;58;1137102;-66
2022/10/07 02:27:09;;;;;;;18.83;6.63;;;;;;;8.92;82.78;102057.91;5081334;58;1137189;-67
2022/10/07 02:32:20;;;;;;;18.17;6.17;;;;;;;8.86;83.08;102055.08;5075863;58;1136985;-70
2022/10/07 02:37:30;;;;;;;15.70;6.37;;;;;;;8.82;83.32;102057.48;5105130;57;1137045;-70
2022/10/07 02:42:41;;;;;;;17.90;6.03;;;;;;;8.66;83.15;102053.83;5089725;57;1137006;-64
2022/10/07 02:47:53;;;;;;;18.97;6.90;;;;;;;8.57;83.07;102051.59;5152563;57;1134869;-65
2022/10/07 02:53:03;;;;;;;17.37;6.30;;;;;;;8.41;83.18;102044.36;5152687;57;1134824;-66
2022/10/07 02:58:11;;;;;;;20.17;5.47;;;;;;;8.30;83.28;102041.32;5125805;57;1137032;-73
2022/10/07 03:03:18;;;;;;;17.97;5.87;;;;;;;8.30;83.86;102041.32;5156246;57;1137015;-66
2022/10/07 03:08:28;;;;;;;23.43;7.27;;;;;;;8.26;84.19;102035.78;5155735;57;1136965;-65
2022/10/07 03:13:35;;;;;;;23.17;6.60;;;;;;;8.16;84.14;102037.57;5142218;57;1134928;-71
2022/10/07 03:18:41;;;;;;;11.63;5.77;;;;;;;8.17;84.28;102039.29;5091854;58;22119;-69
2022/10/07 03:23:56;;;;;;;12.57;5.83;;;;;;;8.04;84.08;102033.23;5071183;58;1132861;-68
2022/10/07 03:29:04;;;;;;;27.05;6.85;;;;;;;7.95;84.47;102033.61;5078722;56;1136995;-71
2022/10/07 03:34:10;;;;;;;23.57;6.13;;;;;;;7.84;84.94;102029.27;5123106;56;1136909;-67
2022/10/07 03:39:16;;;;;;;22.03;6.23;;;;;;;7.73;84.71;102034.13;5123074;57;1139341;-69
2022/10/07 03:44:22;;;;;;;35.80;8.80;;;;;;;7.72;85.12;102028.47;5125603;57;1139025;-65
2022/10/07 03:49:28;;;;;;;26.03;8.23;;;;;;;7.68;85.29;102022.92;5159651;57;1138819;-70
2022/10/07 03:54:34;;;;;;;15.38;5.97;;;;;;;7.68;85.69;102031.67;5133643;57;1139055;-65
2022/10/07 03:59:41;;;;;;;34.17;14.60;;;;;;;7.61;85.85;102026.28;5133726;57;1139024;-69
2022/10/07 04:04:48;;;;;;;35.53;10.60;;;;;;;7.41;85.69;102019.19;5159573;57;1139043;-67
2022/10/07 04:09:54;;;;;;;109.30;23.87;;;;;;;7.37;86.32;102022.00;5164548;57;1138976;-71
2022/10/07 04:15:00;;;;;;;190.40;41.17;;;;;;;7.29;86.11;102019.69;5148189;57;1143177;-67
2022/10/07 04:20:10;;;;;;;351.83;68.40;;;;;;;7.31;86.18;102013.91;5132987;57;1143247;-67
2022/10/07 04:25:35;;;;;;;430.60;88.50;;;;;;;7.34;86.38;102007.19;5100220;56;1143204;-67
2022/10/07 04:30:43;;;;;;;461.03;92.10;;;;;;;7.33;86.29;102002.84;5096662;57;1143457;-65
2022/10/07 04:35:50;;;;;;;496.33;104.20;;;;;;;7.29;86.11;101999.09;5163959;57;1141197;-67
2022/10/07 04:40:57;;;;;;;456.10;96.67;;;;;;;7.24;86.21;102003.67;5086603;57;1143210;-67
2022/10/07 04:46:13;;;;;;;443.60;94.27;;;;;;;7.18;85.75;101999.50;5152806;57;1143415;-68
2022/10/07 04:51:22;;;;;;;444.43;104.47;;;;;;;7.15;85.88;101990.44;5163674;57;1143368;-69
2022/10/07 04:56:30;;;;;;;391.83;106.30;;;;;;;7.03;86.32;101997.48;5163363;57;1145178;-69
2022/10/07 05:01:36;;;;;;;202.13;49.17;;;;;;;7.03;86.32;101997.48;5164929;57;1143174;-69
2022/10/07 05:06:42;;;;;;;124.23;29.20;;;;;;;6.93;86.52;102001.39;5164937;57;1141112;-69
2022/10/07 05:11:48;;;;;;;59.30;17.10;;;;;;;6.84;86.58;101997.36;5122226;57;1141159;-70
2022/10/07 05:16:56;;;;;;;46.23;14.70;;;;;;;6.78;86.43;101986.20;5084076;57;1141108;-70
2022/10/07 05:22:04;;;;;;;72.40;26.13;;;;;;;6.78;86.96;101984.89;5123408;57;1141147;-68
2022/10/07 05:27:11;;;;;;;58.07;18.83;;;;;;;6.80;87.42;101981.30;5114216;57;1141099;-70
2022/10/07 05:32:17;;;;;;;43.10;18.13;;;;;;;6.83;87.85;101984.27;5101332;57;1139128;-66
2022/10/07 05:37:25;;;;;;;41.03;19.03;;;;;;;6.80;88.13;101978.66;5126540;57;1139052;-68
2022/10/07 05:42:31;;;;;;;49.57;18.07;;;;;;;6.84;88.43;101978.95;5144018;57;1139009;-66
2022/10/07 05:47:38;;;;;;;63.30;22.53;;;;;;;7.02;89.26;101978.70;5118496;57;1139022;-70
2022/10/07 05:52:45;;;;;;;140.53;52.83;;;;;;;7.19;89.75;101974.05;5159006;57;1139009;-67
2022/10/07 05:57:50;;;;;;;121.53;48.33;;;;;;;7.39;90.01;101974.97;5165277;57;1141136;-68
2022/10/07 06:03:00;;;;;;;79.47;32.20;;;;;;;7.61;90.70;101968.36;5164497;57;1139134;-69
2022/10/07 06:08:04;;;;;;;60.97;24.10;;;;;;;7.90;91.18;101969.75;5163906;57;1139020;-69
2022/10/07 06:13:10;;;;;;;34.45;14.65;;;;;;;8.23;91.49;101973.14;5163716;57;1139096;-70
2022/10/07 06:18:18;;;;;;;43.30;15.10;;;;;;;8.53;91.73;101970.94;5165052;56;1138963;-69
2022/10/07 06:23:25;;;;;;;34.70;18.07;;;;;;;8.87;92.51;101975.00;5164036;57;1139210;-70
2022/10/07 06:28:39;;;;;;;32.43;14.63;;;;;;;9.24;92.66;101979.85;5165037;56;1139027;-68
2022/10/07 06:33:46;;;;;;;28.17;12.90;;;;;;;9.58;92.49;101969.80;5164768;57;1139080;-68
2022/10/07 06:38:54;;;;;;;27.47;13.67;;;;;;;9.99;93.17;101966.36;5165025;57;1139090;-70
2022/10/07 06:44:02;;;;;;;44.70;12.50;;;;;;;10.31;92.68;101963.38;5164957;57;1139004;-67
2022/10/07 06:49:08;;;;;;;33.73;13.10;;;;;;;10.67;92.55;101967.15;5165275;57;1141114;-66
2022/10/07 06:54:14;;;;;;;36.10;13.83;;;;;;;10.99;91.98;101966.69;5165343;57;1141217;-69
2022/10/07 06:59:20;;;;;;;16.07;8.03;;;;;;;11.18;91.17;101968.66;5165275;57;1139053;-67
2022/10/07 07:04:30;;;;;;;21.73;7.83;;;;;;;11.18;89.41;101966.00;5164713;57;1141147;-66
2022/10/07 07:09:36;;;;;;;15.15;7.22;;;;;;;11.17;89.76;101961.17;5150776;57;1141194;-67
2022/10/07 07:14:47;;;;;;;12.88;6.10;;;;;;;11.33;90.64;101953.67;5111568;57;1141055;-69
2022/10/07 07:20:15;;;;;;;26.03;9.17;;;;;;;11.42;89.96;101954.48;5113291;57;1141006;-72
2022/10/07 07:25:33;;;;;;;14.37;7.23;;;;;;;11.41;90.32;101952.78;4963670;59;1141085;-70
2022/10/07 07:30:53;;;;;;;12.83;5.97;;;;;;;11.48;90.78;101939.06;4987979;59;1140447;-68
2022/10/07 07:36:18;;;;;;;9.17;5.67;;;;;;;11.81;91.57;101940.69;4979190;58;1141117;-71
2022/10/07 07:41:44;;;;;;;10.23;4.53;;;;;;;12.02;91.39;101938.08;4972824;59;1139255;-70
2022/10/07 07:47:07;;;;;;;11.07;4.57;;;;;;;12.28;91.83;101934.67;4868958;60;1141247;-68
2022/10/07 07:52:24;;;;;;;15.03;4.43;;;;;;;12.47;90.69;101937.03;4791468;60;1141389;-71
2022/10/07 07:57:38;;;;;;;10.77;4.00;;;;;;;12.66;90.57;101926.96;4932048;59;1141297;-70
2022/10/07 08:02:51;;;;;;;8.30;3.43;;;;;;;12.87;89.35;101924.70;4896643;59;1141291;-70
2022/10/07 08:08:01;;;;;;;17.83;4.53;;;;;;;13.17;88.04;101920.55;4973392;58;1139233;-69
2022/10/07 08:13:16;;;;;;;9.07;3.50;;;;;;;13.42;87.60;101918.45;4955386;59;1139238;-68
2022/10/07 08:18:32;;;;;;;11.60;3.90;;;;;;;13.54;85.92;101912.78;4906023;59;1137007;-71
2022/10/07 08:24:02;;;;;;;12.10;3.80;;;;;;;13.76;85.43;101922.78;4906568;60;1139202;-73
2022/10/07 08:29:16;;;;;;;11.13;3.17;;;;;;;13.88;82.33;101913.98;4995586;58;1139029;-69
2022/10/07 08:34:28;;;;;;;10.23;3.07;;;;;;;14.02;81.87;101911.22;5012892;57;1139125;-71
2022/10/07 08:39:44;;;;;;;9.33;4.12;;;;;;;14.17;81.24;101907.48;5010512;58;1138987;-69
2022/10/07 08:44:53;;;;;;;8.55;3.00;;;;;;;14.41;80.39;101908.42;5062247;57;1139127;-72
2022/10/07 08:50:17;;;;;;;9.78;3.27;;;;;;;14.51;78.34;101882.01;5160871;57;1139182;-68
2022/10/07 08:55:42;;;;;;;9.60;2.80;;;;;;;14.78;79.07;101899.11;5045271;57;1139323;-68
2022/10/07 09:01:17;;;;;;;7.57;2.33;;;;;;;14.95;76.50;101891.21;5079530;57;1139293;-70
2022/10/07 09:06:55;;;;;;;5.53;2.25;;;;;;;15.15;74.32;101883.89;5039229;57;1138994;-67
2022/10/07 09:12:03;;;;;;;5.67;2.67;;;;;;;15.32;77.43;101876.80;5061992;57;1139103;-68
2022/10/07 09:17:22;;;;;;;8.57;2.10;;;;;;;15.62;74.18;101870.13;5060632;57;1139131;-70
2022/10/07 09:22:37;;;;;;;8.60;2.50;;;;;;;15.71;71.49;101872.95;5065682;57;1139104;-71
2022/10/07 09:27:43;;;;;;;7.20;2.67;;;;;;;15.83;71.02;101863.98;5050691;57;1139095;-68
2022/10/07 09:32:55;;;;;;;6.83;2.13;;;;;;;15.96;70.74;101855.86;4997806;58;1139053;-70
2022/10/07 09:38:10;;;;;;;7.80;2.83;;;;;;;15.98;68.46;101850.40;5023132;58;1139043;-68
2022/10/07 09:43:16;;;;;;;5.33;2.30;;;;;;;16.01;67.49;101835.48;5074252;57;1139083;-70
2022/10/07 09:48:32;;;;;;;12.63;2.13;;;;;;;16.13;69.78;101834.50;5131174;57;1137024;-70
2022/10/07 09:53:36;;;;;;;11.40;2.43;;;;;;;16.27;67.20;101826.23;5131325;57;1139290;-68
2022/10/07 09:58:42;;;;;;;6.00;2.53;;;;;;;16.38;68.28;101818.19;5135305;57;1139161;-70
2022/10/07 10:03:47;;;;;;;11.80;2.80;;;;;;;16.48;67.97;101811.14;5123480;57;1137073;-71
2022/10/07 10:08:56;;;;;;;5.17;2.37;;;;;;;16.64;66.78;101799.23;5133859;57;1139317;-70
2022/10/07 10:14:16;;;;;;;5.50;1.90;;;;;;;16.92;67.48;101795.10;5120732;57;1137235;-71
2022/10/07 10:19:26;;;;;;;3.30;1.47;;;;;;;17.13;64.91;101792.78;5046374;58;1136970;-69
2022/10/07 10:30:12;;;;;;;7.10;1.97;;;;;;;17.24;65.21;101785.20;5136343;57;1136763;-72
2022/10/07 10:35:40;;;;;;;5.80;1.70;;;;;;;17.38;65.51;101777.33;5120762;57;1139074;-67
2022/10/07 10:41:11;;;;;;;8.50;2.03;;;;;;;17.54;65.11;101762.98;5066380;57;1139335;-72
2022/10/07 10:46:27;;;;;;;7.83;1.63;;;;;;;17.57;63.80;101756.85;5086065;57;1139075;-70
2022/10/07 10:51:55;;;;;;;2.20;1.27;;;;;;;17.65;62.67;101742.85;5073498;57;1139022;-71
2022/10/07 10:57:30;;;;;;;9.60;2.13;;;;;;;17.65;62.74;101738.84;5133431;57;1139015;-69
2022/10/07 11:02:48;;;;;;;4.50;2.03;;;;;;;17.75;60.54;101724.99;5132142;57;1139143;-69
2022/10/07 11:08:01;;;;;;;12.70;2.07;;;;;;;17.85;61.96;101720.54;5076452;57;1139111;-67
2022/10/07 11:13:42;;;;;;;4.28;1.67;;;;;;;17.86;61.07;101710.19;5084640;57;1141037;-72
2022/10/07 11:19:12;;;;;;;3.93;1.30;;;;;;;17.97;60.84;101700.34;5144995;57;1137175;-69
2022/10/07 11:24:34;;;;;;;6.17;1.80;;;;;;;18.13;61.71;101684.58;5157753;57;1137036;-68
2022/10/07 11:29:56;;;;;;;5.27;1.67;;;;;;;18.26;60.92;101669.93;5113523;57;1136942;-71
2022/10/07 11:35:31;;;;;;;;;;;;;;;18.25;61.07;101655.34;5082533;57;1137068;-69
2022/10/07 11:41:00;;;;;;;3.93;1.57;;;;;;;18.34;61.78;101646.94;5047280;58;976353;-70
2022/10/07 11:46:19;;;;;;;7.45;2.30;;;;;;;18.52;61.43;101635.36;5112749;57;1136955;-71
2022/10/07 11:51:36;;;;;;;4.40;1.82;;;;;;;18.74;60.45;101610.61;5120565;57;1138979;-69
2022/10/07 11:56:54;;;;;;;4.12;1.32;;;;;;;18.94;61.22;101605.55;5126195;57;1139020;-68
2022/10/07 12:02:01;;;;;;;5.10;1.57;;;;;;;19.01;56.05;101592.38;5131537;57;1139081;-70
2022/10/07 12:07:58;;;;;;;4.45;1.57;;;;;;;19.08;56.57;101573.38;5131360;57;1139015;-69
2022/10/07 12:13:24;;;;;;;6.70;2.15;;;;;;;19.10;58.82;101569.53;5131081;57;1139107;-69
2022/10/07 12:18:28;;;;;;;9.30;3.02;;;;;;;19.25;57.51;101554.63;5131100;57;1139039;-67
2022/10/07 12:23:40;;;;;;;4.62;1.57;;;;;;;19.33;56.24;101539.98;5106417;57;1139047;-67
2022/10/07 12:28:54;;;;;;;4.92;2.52;;;;;;;19.37;55.84;101528.96;5093983;57;1139260;-71
2022/10/07 12:34:13;;;;;;;3.72;1.35;;;;;;;19.60;57.14;101520.83;5131246;57;1137025;-71
2022/10/07 12:39:36;;;;;;;5.25;1.05;;;;;;;19.65;55.74;101520.73;5144020;57;1137217;-66
2022/10/07 12:44:51;;;;;;;1.60;1.45;;;;;;;19.69;53.27;101510.53;5165544;57;1136957;-66
2022/10/07 12:50:00;;;;;;;2.55;0.98;;;;;;;19.74;53.95;101497.47;5165526;57;1136923;-70
2022/10/07 12:55:15;;;;;;;4.87;1.62;;;;;;;19.81;55.43;101489.16;5165330;57;1137175;-67
2022/10/07 13:00:24;;;;;;;25.52;2.27;;;;;;;20.01;52.41;101486.61;5165443;56;1136879;-69
2022/10/07 13:06:10;;;;;;;3.98;1.25;;;;;;;20.16;54.35;101483.38;5165429;57;1139199;-70
2022/10/07 13:11:38;;;;;;;6.47;5.83;;;;;;;20.18;53.25;101467.42;5165298;56;1139024;-69
2022/10/07 13:17:15;;;;;;;7.47;1.75;;;;;;;20.26;52.41;101463.47;5098215;57;1139016;-69
2022/10/07 13:22:23;;;;;;;3.37;1.55;;;;;;;20.33;52.69;101459.63;5081538;57;1139128;-69
2022/10/07 13:27:33;;;;;;;4.20;1.67;;;;;;;20.30;53.17;101453.25;5102983;56;1139087;-67
2022/10/07 13:32:39;;;;;;;5.97;1.75;;;;;;;20.35;53.42;101437.47;5140493;57;1139069;-67
2022/10/07 13:37:47;;;;;;;7.33;1.52;;;;;;;20.36;52.79;101440.03;5145367;56;1139503;-66
2022/10/07 13:43:01;;;;;;;3.27;1.30;;;;;;;20.40;53.58;101424.44;5147219;57;1139109;-70
2022/10/07 13:48:07;;;;;;;;;;;;;;;20.35;52.17;101411.45;5155342;57;1138983;-70
2022/10/07 13:53:37;;;;;;;4.92;2.00;;;;;;;20.41;52.13;101393.88;5159926;57;976367;-71
2022/10/07 13:58:44;;;;;;;1.98;1.55;;;;;;;20.36;52.33;101388.98;5148759;57;1137039;-69
2022/10/07 14:04:12;;;;;;;3.52;1.70;;;;;;;20.36;51.82;101379.58;5134751;57;1139173;-67
2022/10/07 14:09:31;;;;;;;6.35;2.00;;;;;;;20.31;51.77;101371.66;5145104;57;1136919;-70
2022/10/07 14:14:40;;;;;;;3.68;1.56;;;;;;;20.27;52.72;101364.41;5145777;57;1137097;-68
2022/10/07 14:19:53;;;;;;;5.03;1.57;;;;;;;20.40;52.87;101352.39;5105267;57;1136983;-69
2022/10/07 14:25:03;;;;;;;1.20;1.17;;;;;;;20.48;53.16;101347.88;5149973;57;1136994;-67
2022/10/07 14:36:16;;;;;;;11.35;3.52;;;;;;;20.50;52.31;101328.40;5149467;57;1134969;-68
2022/10/07 14:41:23;;;;;;;5.60;2.22;;;;;;;20.56;52.90;101324.23;5076156;58;1141258;-68
2022/10/07 14:46:29;;;;;;;5.12;2.52;;;;;;;20.56;52.70;101303.56;5154327;57;1139030;-69
2022/10/07 14:51:35;;;;;;;5.47;1.72;;;;;;;20.48;52.87;101302.19;5156242;57;1139432;-67
2022/10/07 14:56:41;;;;;;;3.15;1.55;;;;;;;20.46;53.04;101289.95;5156193;57;1138445;-68
2022/10/07 15:01:48;;;;;;;2.52;1.82;;;;;;;20.53;53.24;101285.58;5156150;57;1139263;-69
2022/10/07 15:06:56;;;;;;;5.33;1.75;;;;;;;20.91;53.33;101274.22;5155249;57;1138947;-67
2022/10/07 15:12:04;;;;;;;5.25;1.87;;;;;;;21.62;53.61;101261.86;5105847;57;1139001;-69
2022/10/07 15:17:13;;;;;;;36.77;23.42;;;;;;;21.91;50.79;101251.33;5109644;57;1139179;-66
2022/10/07 15:22:18;;;;;;;116.37;86.78;;;;;;;21.27;50.91;101245.62;5072340;57;1143209;-67
2022/10/07 15:27:24;;;;;;;50.50;37.05;;;;;;;20.84;52.53;101241.42;5109927;57;1145227;-69
2022/10/07 15:32:30;;;;;;;14.78;11.80;;;;;;;20.54;53.13;101243.76;5104500;57;1143317;-70
2022/10/07 15:37:36;;;;;;;13.65;6.65;;;;;;;20.63;54.36;101238.72;5128240;57;1143191;-68
2022/10/07 15:42:43;;;;;;;7.70;6.42;;;;;;;21.65;53.37;101230.56;5113773;57;1141135;-69
2022/10/07 15:47:50;;;;;;;13.90;8.10;;;;;;;22.49;51.80;101234.35;5095422;57;1138954;-69
2022/10/07 15:52:55;;;;;;;25.82;12.03;;;;;;;22.80;50.88;101231.11;5129397;57;1141395;-70
2022/10/07 15:58:00;;;;;;;21.62;11.50;;;;;;;22.47;51.04;101227.79;5100312;57;1143188;-66
2022/10/07 16:03:06;;;;;;;19.65;10.70;;;;;;;21.78;51.89;101225.46;5062045;57;1143143;-70
2022/10/07 16:08:13;;;;;;;6.58;4.47;;;;;;;21.21;52.82;101227.48;5048789;57;1143233;-66
2022/10/07 16:13:18;;;;;;;13.60;8.70;;;;;;;20.75;53.55;101223.63;5104794;57;1139089;-67
2022/10/07 16:18:24;;;;;;;17.15;8.10;;;;;;;20.23;53.71;101226.04;5048668;57;1141135;-68
2022/10/07 16:23:31;;;;;;;65.17;34.38;;;;;;;19.62;54.78;101223.14;5041893;57;1141276;-70
2022/10/07 16:34:06;;;;;;;59.63;25.55;;;;;;;18.98;57.02;101222.20;5075325;57;1143197;-67
2022/10/07 16:39:14;;;;;;;100.90;56.23;;;;;;;18.79;57.81;101221.88;5048414;57;1143368;-66
2022/10/07 16:44:21;;;;;;;96.00;37.53;;;;;;;18.61;58.52;101221.92;5117521;57;1145261;-66
2022/10/07 16:49:29;;;;;;;55.88;21.02;;;;;;;18.50;59.17;101220.76;5164980;57;1143222;-70
2022/10/07 16:54:34;;;;;;;27.42;12.20;;;;;;;18.37;59.59;101214.94;5163109;57;1143335;-71
2022/10/07 16:59:40;;;;;;;59.13;24.32;;;;;;;18.14;59.88;101213.72;5145420;57;1143099;-69
2022/10/07 17:04:45;;;;;;;62.25;15.43;;;;;;;17.98;60.61;101198.31;5148042;57;1143188;-66
2022/10/07 17:09:51;;;;;;;59.15;19.92;;;;;;;17.86;61.56;101204.88;5141818;57;1141416;-70
2022/10/07 17:14:59;;;;;;;61.23;24.52;;;;;;;17.64;62.22;101194.55;5147279;57;1141110;-66
2022/10/07 17:20:05;;;;;;;86.20;36.43;;;;;;;17.50;63.11;101200.70;5151679;56;1141001;-70
2022/10/07 17:25:11;;;;;;;168.20;67.27;;;;;;;17.37;63.75;101194.01;5142794;57;1141146;-66
2022/10/07 17:30:17;;;;;;;149.40;70.37;;;;;;;17.10;64.94;101192.13;5151972;57;1143213;-68
2022/10/07 17:35:23;;;;;;;128.60;59.63;;;;;;;17.10;64.94;101192.13;5140462;56;1143158;-69
2022/10/07 17:40:32;;;;;;;125.87;56.27;;;;;;;16.99;65.26;101186.44;5144955;56;1143181;-70
2022/10/07 17:45:39;;;;;;;107.90;48.70;;;;;;;16.83;65.71;101189.70;5121609;57;1143094;-70
2022/10/07 17:50:45;;;;;;;66.87;32.57;;;;;;;16.59;66.00;101183.09;5150427;57;1143435;-68
2022/10/07 17:55:53;;;;;;;117.93;46.80;;;;;;;16.28;66.53;101183.23;5159821;57;1141249;-70
2022/10/07 18:01:02;;;;;;;176.60;68.20;;;;;;;16.07;67.60;101173.16;5140893;57;1143229;-67
2022/10/07 18:06:10;;;;;;;244.77;88.87;;;;;;;16.01;68.66;101162.57;5115823;57;1143245;-66
2022/10/07 18:11:17;;;;;;;251.20;91.47;;;;;;;16.01;68.66;101162.57;5114943;57;1143138;-70
2022/10/07 18:16:23;;;;;;;317.10;116.10;;;;;;;15.92;69.01;101162.53;5102561;57;1143265;-68
2022/10/07 18:21:31;;;;;;;263.03;95.80;;;;;;;15.75;69.42;101154.70;5146750;57;1145561;-64
2022/10/07 18:26:37;;;;;;;450.03;166.03;;;;;;;15.63;69.94;101157.13;5153749;57;1141289;-70
2022/10/07 18:31:43;;;;;;;189.73;73.13;;;;;;;15.24;70.17;101160.97;5137221;57;1143303;-68
2022/10/07 18:36:49;;;;;;;125.72;57.98;;;;;;;15.11;72.22;101153.69;5157850;56;1145262;-70
2022/10/07 18:41:56;;;;;;;62.14;24.58;;;;;;;14.99;72.34;101139.59;5145572;57;1145502;-68
2022/10/07 18:47:02;;;;;;;31.03;13.97;;;;;;;14.97;72.55;101133.55;5142670;56;1143784;-67
2022/10/07 18:52:08;;;;;;;32.63;13.07;;;;;;;14.97;73.14;101137.53;5148363;57;1143163;-66
2022/10/07 18:57:14;;;;;;;29.60;15.67;;;;;;;15.06;73.64;101126.59;5141997;56;1143164;-70
2022/10/07 19:02:21;;;;;;;23.50;12.07;;;;;;;15.03;73.86;101119.70;5122294;57;1143273;-69
2022/10/07 19:07:27;;;;;;;14.80;8.20;;;;;;;14.87;73.30;101110.02;5148597;56;1143159;-68
2022/10/07 19:17:57;;;;;;;21.90;8.53;;;;;;;14.83;74.27;101105.92;5150552;57;1141256;-69
2022/10/07 19:23:02;;;;;;;25.07;9.87;;;;;;;14.77;74.20;101102.48;5111534;57;1141229;-68
2022/10/07 19:28:08;;;;;;;20.37;9.70;;;;;;;14.70;74.69;101099.48;5076385;57;1141093;-66
2022/10/07 19:33:14;;;;;;;27.13;9.27;;;;;;;14.62;74.62;101098.47;5068101;58;1141411;-68
2022/10/07 19:38:22;;;;;;;12.50;5.60;;;;;;;14.48;74.70;101092.14;5067878;58;1141256;-69
2022/10/07 19:43:28;;;;;;;18.20;6.80;;;;;;;14.40;75.18;101091.44;5100397;57;1141159;-67
2022/10/07 19:48:35;;;;;;;22.10;9.23;;;;;;;14.17;75.17;101089.36;5164824;57;1141080;-68
2022/10/07 19:53:42;;;;;;;57.33;21.83;;;;;;;14.15;76.41;101083.33;5164158;57;1141176;-68
2022/10/07 19:58:57;;;;;;;55.87;27.67;;;;;;;14.11;76.37;101077.89;5164747;57;1143179;-67
2022/10/07 20:04:08;;;;;;;59.37;28.13;;;;;;;14.06;76.75;101078.75;5164122;57;1143437;-69
2022/10/07 20:09:17;;;;;;;81.87;40.63;;;;;;;13.95;77.19;101079.66;5163817;57;1143522;-68
2022/10/07 20:14:23;;;;;;;41.80;20.03;;;;;;;13.78;77.50;101076.20;5132329;57;1143534;-68
2022/10/07 20:19:29;;;;;;;46.20;24.93;;;;;;;13.65;78.09;101076.86;5116713;57;1143460;-69
2022/10/07 20:24:35;;;;;;;59.80;26.53;;;;;;;13.60;78.01;101071.06;5078861;57;1143232;-65
2022/10/07 20:30:01;;;;;;;41.47;20.73;;;;;;;13.54;78.22;101067.11;5114540;57;1143282;-71
2022/10/07 20:35:09;;;;;;;48.13;20.03;;;;;;;13.47;78.43;101060.59;5127956;57;1143321;-70
2022/10/07 20:45:54;;;;;;;;;;;;;;;13.23;79.17;101063.42;5153753;57;1141334;-68
2022/10/07 20:50:43;;;;;;;42.67;15.60;;;;;;;13.25;80.05;101057.51;5124607;57;974247;-69
2022/10/07 20:55:49;;;;;;;28.70;11.20;;;;;;;13.18;80.34;101039.52;5048024;57;1139299;-66
2022/10/07 21:00:56;;;;;;;22.53;10.40;;;;;;;13.18;80.34;101039.52;5048580;57;1141124;-67
2022/10/07 21:06:02;;;;;;;42.10;16.03;;;;;;;13.21;80.71;101045.91;5049008;57;1141291;-65
2022/10/07 21:11:07;;;;;;;25.50;10.90;;;;;;;13.10;80.62;101040.11;5048855;57;1141160;-67
2022/10/07 21:16:15;;;;;;;41.87;17.60;;;;;;;13.03;80.58;101041.06;5081345;57;1141146;-66
2022/10/07 21:21:23;;;;;;;52.53;20.87;;;;;;;12.97;81.17;101034.09;5069230;57;1141146;-66
2022/10/07 21:26:28;;;;;;;114.57;48.57;;;;;;;12.89;81.36;101030.70;5048953;57;1141142;-66
2022/10/07 21:31:35;;;;;;;47.63;20.27;;;;;;;12.84;81.55;101021.40;5130867;57;1143283;-68
2022/10/07 21:36:45;;;;;;;58.70;27.37;;;;;;;12.89;82.10;101013.92;5131828;57;1141177;-67
2022/10/07 21:41:50;;;;;;;63.73;31.47;;;;;;;12.84;81.95;101006.31;5131636;57;1141209;-70
2022/10/07 21:46:58;;;;;;;58.27;25.57;;;;;;;12.75;81.89;100998.25;5131635;57;1141136;-67
2022/10/07 21:52:03;;;;;;;97.73;46.77;;;;;;;12.64;81.90;100983.18;5131216;57;1141306;-68
2022/10/07 21:57:09;;;;;;;52.10;21.10;;;;;;;12.64;81.90;100983.18;5131540;57;1141114;-68
2022/10/07 22:02:15;;;;;;;45.70;19.37;;;;;;;12.71;82.41;100988.83;5131543;57;1141119;-70
2022/10/07 22:12:44;;;;;;;42.62;18.48;;;;;;;12.67;82.47;100967.87;5132193;57;1143139;-67
2022/10/07 22:17:52;;;;;;;45.97;19.87;;;;;;;12.57;82.36;100957.59;5027998;57;1143221;-68
2022/10/07 22:22:58;;;;;;;25.57;9.10;;;;;;;12.48;82.08;100961.47;5131862;57;1143465;-68
2022/10/07 22:28:04;;;;;;;28.83;11.55;;;;;;;12.48;82.16;100961.47;5107923;57;1141061;-68
2022/10/07 22:33:11;;;;;;;15.13;7.77;;;;;;;12.46;82.23;100951.45;5048903;58;1143537;-66
2022/10/07 22:38:17;;;;;;;21.85;9.70;;;;;;;12.34;82.42;100950.61;5048863;58;1141385;-65
2022/10/07 22:43:23;;;;;;;16.73;8.23;;;;;;;12.24;82.55;100938.53;5078112;57;1141101;-69
2022/10/07 22:48:30;;;;;;;17.20;9.80;;;;;;;12.09;82.34;100942.37;5131606;57;1141241;-67
2022/10/07 22:53:40;;;;;;;24.43;11.83;;;;;;;11.61;82.00;100937.64;5131393;57;1141133;-66
2022/10/07 22:58:58;;;;;;;26.43;13.47;;;;;;;11.43;83.26;100937.23;5131132;57;1143226;-66
2022/10/07 23:04:04;;;;;;;42.67;21.90;;;;;;;11.47;84.18;100929.41;5048472;58;1143241;-66
2022/10/07 23:09:10;;;;;;;45.93;23.03;;;;;;;11.44;84.27;100912.45;5048413;58;1143535;-69
2022/10/07 23:14:16;;;;;;;46.77;20.03;;;;;;;11.48;84.76;100901.11;5087326;57;1143106;-69
2022/10/07 23:19:22;;;;;;;53.57;24.47;;;;;;;11.47;84.90;100906.89;5102344;57;1143334;-66
2022/10/07 23:24:28;;;;;;;28.53;13.67;;;;;;;11.50;84.89;100903.17;5048164;58;1143177;-66
2022/10/07 23:29:34;;;;;;;29.90;16.57;;;;;;;11.47;84.11;100900.27;5048356;58;1143449;-69
2022/10/07 23:34:40;;;;;;;33.43;15.80;;;;;;;11.38;84.68;100898.33;5025404;58;1143318;-66
2022/10/07 23:39:48;;;;;;;29.40;14.47;;;;;;;11.45;85.11;100890.30;4986934;59;1143477;-65
2022/10/07 23:44:53;;;;;;;30.97;15.20;;;;;;;11.47;84.92;100891.00;5040213;57;1143360;-68
2022/10/07 23:50:00;;;;;;;32.00;13.30;;;;;;;11.47;84.89;100888.83;5102389;57;1143208;-68